Latest Weather Observations for Brisbane Airport

IDQ60901

Issued at 12:11 pm EST Thursday 11 February 2016 (issued every 10 minutes, with the page automatically refreshed every 10 minutes)

About weather observations | Map of Brisbane area stations | Latest observations for Brisbane area | Other Formats
Station Details ID: 040842 Name: BRISBANE AERO Lat: -27.39 Lon: 153.13 Height: 4.51 m
Data from the previous 72 hours. | See also: Recent months at Brisbane Airport
Date/Time
EST
Tmp

°C
App
Tmp
°C
Dew
Point
°C
Rel
Hum
%
Delta-T

°C
Wind Press
QNH
hPa
Press
MSL
hPa
Rain
since
9 am
mm
Dir
 
Spd
km/h
Gust
km/h
Spd
kts
Gust
kts
11/12:00pm 28.0 27.2 18.5 56 6.1 ESE 20 33 11 18 1012.6 1012.6 0.0
11/11:30am 28.1 27.1 18.9 57 5.9 ESE 22 35 12 19 1012.7 1012.7 0.0
11/11:00am 28.0 26.9 18.6 56 6.0 ESE 22 32 12 17 1012.6 1012.6 0.0
11/10:30am 27.8 26.4 18.8 58 5.8 ESE 24 35 13 19 1012.7 1012.7 0.0
11/10:00am 28.1 27.7 18.8 57 6.0 ESE 19 30 10 16 1013.0 1013.0 0.0
11/09:30am 27.6 26.9 18.7 58 5.7 SE 20 28 11 15 1012.9 1012.9 0.0
11/09:00am 27.5 27.3 18.6 58 5.7 SE 17 26 9 14 1013.0 1013.0 0.0
11/08:30am 26.6 26.0 17.5 57 5.7 SE 17 24 9 13 1012.9 1012.9 0.0
11/08:00am 25.3 25.7 18.9 67 4.1 S 15 20 8 11 1012.9 1012.9 0.0
11/07:30am 24.5 24.8 18.8 70 3.6 S 15 22 8 12 1012.9 1012.9 0.0
11/07:00am 22.9 23.4 18.4 76 2.8 SSW 13 17 7 9 1012.7 1012.7 0.0
11/06:30am 21.3 21.8 18.3 83 1.9 SSW 13 17 7 9 1012.6 1012.6 0.0
11/06:00am 20.0 20.3 17.9 88 1.3 SSW 13 15 7 8 1012.4 1012.4 0.0
11/05:30am 19.5 19.6 17.5 88 1.2 SSW 13 19 7 10 1012.1 1012.1 0.0
11/05:00am 19.7 20.3 17.6 88 1.3 SSW 11 15 6 8 1011.9 1011.9 0.0
11/04:30am 19.8 20.4 17.7 88 1.3 SSW 11 15 6 8 1011.7 1011.7 0.0
11/04:00am 19.9 20.5 17.8 88 1.3 SSW 11 15 6 8 1011.5 1011.5 0.0
11/03:30am 21.7 22.6 18.5 82 2.0 S 11 17 6 9 1011.4 1011.4 0.0
11/03:00am 21.6 22.5 18.4 82 2.0 SSW 11 15 6 8 1011.4 1011.4 0.0
11/02:30am 21.9 22.7 18.2 79 2.3 S 11 15 6 8 1011.6 1011.6 0.0
11/02:00am 21.8 23.0 18.3 80 2.2 S 9 17 5 9 1011.9 1011.9 0.0
11/01:30am 21.8 22.8 18.6 82 2.0 S 11 19 6 10 1012.1 1012.1 0.0
11/01:00am 22.1 22.8 18.9 82 2.0 S 13 20 7 11 1012.4 1012.4 0.0
11/12:30am 22.3 23.1 19.1 82 2.0 S 13 20 7 11 1012.6 1012.6 0.0
11/12:00am 22.7 24.1 19.6 82 2.0 SSE 11 19 6 10 1013.0 1013.0 0.0
 
Date/Time
EST
Tmp

°C
App
Tmp
°C
Dew
Point
°C
Rel
Hum
%
Delta-T

°C
Wind Press
QNH
hPa
Press
MSL
hPa
Rain
since
9 am
mm
Dir
 
Spd
km/h
Gust
km/h
Spd
kts
Gust
kts
10/11:30pm 22.8 24.1 19.3 80 2.2 S 11 15 6 8 1013.3 1013.3 0.0
10/11:00pm 22.7 23.8 19.6 82 2.0 S 13 22 7 12 1013.5 1013.5 0.0
10/10:30pm 23.2 24.5 19.4 79 2.4 SSE 11 17 6 9 1013.5 1013.5 0.0
10/10:00pm 23.8 24.7 19.3 76 2.9 SE 13 26 7 14 1013.7 1013.7 0.0
10/09:30pm 23.9 24.2 18.7 72 3.3 SE 15 24 8 13 1013.6 1013.6 0.0
10/09:00pm 24.2 24.1 18.7 71 3.5 SE 17 28 9 15 1013.5 1013.5 0.0
10/08:30pm 24.0 24.0 18.1 69 3.7 SE 15 26 8 14 1013.4 1013.4 0.0
10/08:00pm 24.2 23.1 17.8 67 4.0 SE 20 32 11 17 1013.3 1013.3 0.0
10/07:30pm 24.6 24.4 18.6 69 3.8 SE 17 28 9 15 1012.9 1012.9 0.0
10/07:00pm 24.7 24.2 18.7 69 3.8 SE 19 30 10 16 1012.9 1012.9 0.0
10/06:30pm 24.8 24.3 18.7 69 3.9 SE 19 32 10 17 1012.5 1012.5 0.0
10/06:00pm 25.2 24.1 18.6 67 4.2 ESE 22 41 12 22 1012.2 1012.2 0.0
10/05:30pm 25.3 25.1 19.7 71 3.6 ESE 20 35 11 19 1012.0 1012.0 0.0
10/05:00pm 25.3 25.3 20.1 73 3.4 ESE 20 33 11 18 1011.7 1011.7 0.0
10/04:30pm 25.5 24.7 20.0 71 3.6 ESE 24 33 13 18 1011.4 1011.4 0.0
10/04:00pm 25.6 25.1 19.9 70 3.7 ESE 22 33 12 18 1011.3 1011.3 0.0
10/03:30pm 25.6 24.2 19.6 69 3.9 ESE 26 39 14 21 1011.2 1011.2 0.0
10/03:00pm 26.5 25.7 20.1 68 4.2 ESE 24 37 13 20 1011.3 1011.3 0.0
10/02:30pm 27.1 25.5 20.1 65 4.6 ESE 28 41 15 22 1011.4 1011.4 0.0
10/02:00pm 28.7 26.1 17.7 51 7.0 ESE 28 41 15 22 1011.7 1011.7 0.0
10/01:30pm 28.7 26.7 17.5 50 7.1 ESE 24 41 13 22 1011.9 1011.9 0.0
10/01:00pm 28.6 26.8 17.0 49 7.3 ESE 22 37 12 20 1012.2 1012.2 0.0
10/12:30pm 27.1 25.1 18.3 58 5.6 ESE 26 39 14 21 1012.5 1012.5 0.0
10/12:00pm 28.5 26.3 16.8 49 7.3 ESE 24 39 13 21 1012.4 1012.4 0.0
10/11:30am 28.3 26.8 16.8 49 7.2 ESE 20 32 11 17 1012.5 1012.5 0.0
10/11:00am 28.6 26.7 16.8 48 7.4 ESE 22 33 12 18 1012.8 1012.8 0.0
10/10:30am 28.2 26.8 17.0 50 7.0 ESE 20 30 11 16 1013.0 1013.0 0.0
10/10:00am 27.8 26.2 16.1 49 7.2 SE 19 28 10 15 1013.3 1013.3 0.0
10/09:30am 26.3 24.5 16.0 53 6.3 SE 20 33 11 18 1013.6 1013.6 0.0
10/09:00am 26.1 24.4 16.2 54 6.1 S 20 33 11 18 1013.7 1013.7 0.0
10/08:30am 25.3 23.7 16.1 56 5.6 S 19 30 10 16 1013.7 1013.7 0.0
10/08:00am 25.6 24.9 16.3 56 5.7 S 15 24 8 13 1013.7 1013.7 0.0
10/07:30am 24.0 23.2 16.1 61 4.8 S 15 26 8 14 1013.4 1013.4 0.0
10/07:00am 23.5 22.6 15.9 62 4.6 S 15 26 8 14 1013.2 1013.2 0.0
10/06:30am 23.1 22.2 15.8 63 4.4 SSW 15 20 8 11 1012.9 1012.9 0.0
10/06:00am 22.9 22.0 15.9 64 4.2 S 15 20 8 11 1012.7 1012.7 0.0
10/05:30am 22.7 22.0 16.3 67 3.9 S 15 24 8 13 1012.4 1012.4 0.0
10/05:00am 22.6 22.3 16.5 68 3.7 S 13 26 7 14 1012.4 1012.4 0.0
10/04:30am 22.4 21.3 16.3 68 3.7 S 17 33 9 18 1012.0 1012.0 0.0
10/04:00am 22.4 21.3 16.3 68 3.7 S 17 26 9 14 1011.9 1011.9 0.0
10/03:30am 22.3 21.3 16.6 70 3.5 S 17 30 9 16 1012.0 1012.0 0.0
10/03:00am 22.4 21.7 16.5 69 3.6 S 15 26 8 14 1012.1 1012.1 0.0
10/02:30am 22.4 21.9 16.8 70 3.4 S 15 26 8 14 1012.3 1012.3 0.0
10/02:00am 22.2 21.7 16.8 71 3.3 S 15 26 8 14 1012.7 1012.7 0.0
10/01:30am 22.2 21.7 17.0 72 3.2 S 15 26 8 14 1013.0 1013.0 0.0
10/01:00am 22.3 22.1 16.7 70 3.4 S 13 19 7 10 1013.3 1013.3 0.0
10/12:30am 22.0 21.9 16.9 73 3.1 S 13 19 7 10 1013.7 1013.7 0.0
10/12:00am 21.9 21.6 17.3 75 2.8 S 15 24 8 13 1014.2 1014.2 0.0
 
Date/Time
EST
Tmp

°C
App
Tmp
°C
Dew
Point
°C
Rel
Hum
%
Delta-T

°C
Wind Press
QNH
hPa
Press
MSL
hPa
Rain
since
9 am
mm
Dir
 
Spd
km/h
Gust
km/h
Spd
kts
Gust
kts
09/11:30pm 22.3 21.8 16.9 71 3.3 SSE 15 26 8 14 1014.6 1014.6 0.0
09/11:00pm 23.2 22.5 15.5 62 4.6 S 13 24 7 13 1014.8 1014.8 0.0
09/10:30pm 23.4 22.3 15.2 60 4.9 S 15 26 8 14 1015.3 1015.3 0.0
09/10:00pm 23.1 21.9 15.0 60 4.8 S 15 24 8 13 1015.6 1015.6 0.0
09/09:30pm 23.2 21.9 14.8 59 5.0 S 15 22 8 12 1015.8 1015.8 0.0
09/09:00pm 23.1 22.5 14.6 58 5.0 S 11 19 6 10 1015.8 1015.8 0.0
09/08:30pm 23.6 22.4 15.0 58 5.1 SSE 15 26 8 14 1015.9 1015.9 0.0
09/08:00pm 24.3 22.7 14.9 55 5.6 S 17 30 9 16 1015.6 1015.6 0.0
09/07:30pm 24.5 23.4 15.2 56 5.6 SSE 15 28 8 15 1015.5 1015.5 0.0
09/07:00pm 24.8 22.7 14.7 53 6.0 SE 19 32 10 17 1015.0 1015.0 0.0
09/06:30pm 25.3 23.2 14.8 52 6.3 SE 19 33 10 18 1014.6 1014.6 0.0
09/06:00pm 25.9 23.1 15.3 52 6.4 SE 24 39 13 21 1014.3 1014.3 0.0
09/05:30pm 26.6 23.8 15.4 50 6.8 SE 24 39 13 21 1013.9 1013.9 0.0
09/05:20pm 26.8 24.7 16.1 52 6.6 SE 22 39 12 21 1013.8 1013.8 0.0
09/05:00pm 27.3 24.6 16.7 52 6.6 SE 26 43 14 23 1013.6 1013.6 0.0
09/04:37pm 27.2 23.6 15.2 47 7.3 SE 28 48 15 26 1013.7 1013.7 0.0
09/04:30pm 27.2 24.3 16.0 50 6.9 ESE 26 41 14 22 1013.6 1013.6 0.0
09/04:00pm 27.7 23.8 14.4 44 8.0 SE 28 50 15 27 1013.6 1013.6 0.0
09/03:40pm 27.7 23.9 14.6 44 7.9 ESE 28 46 15 25 1013.5 1013.5 0.0
09/03:30pm 27.8 24.2 14.3 43 8.1 ESE 26 44 14 24 1013.5 1013.5 0.0
09/03:06pm 27.7 23.7 14.2 43 8.1 SE 28 48 15 26 1013.5 1013.5 0.0
09/03:00pm 27.7 24.4 13.9 42 8.2 ESE 24 46 13 25 1013.6 1013.6 0.0
09/02:30pm 28.7 24.9 15.7 45 8.0 ESE 30 48 16 26 1013.6 1013.6 0.0
09/02:00pm 28.1 24.7 15.9 47 7.5 ESE 28 46 15 25 1013.8 1013.8 0.0
09/01:50pm 28.3 24.6 15.0 44 8.1 ESE 28 46 15 25 1013.9 1013.9 0.0
09/01:30pm 28.7 24.9 14.7 42 8.5 ESE 28 43 15 23 1014.0 1014.0 0.0
09/01:02pm 28.6 25.2 15.8 45 7.9 ESE 28 48 15 26 1014.1 1014.1 0.0
09/01:00pm 28.3 24.8 15.4 45 7.9 ESE 28 41 15 22 1014.1 1014.1 0.0
09/12:30pm 28.3 24.4 14.3 42 8.4 SE 28 44 15 24 1014.2 1014.2 0.0
09/12:00pm 28.3 24.7 15.2 44 8.0 ESE 28 44 15 24 1014.6 1014.6 0.0
09/11:30am 28.3 24.4 14.5 43 8.3 ESE 28 44 15 24 1014.8 1014.8 0.0
09/11:00am 28.1 24.8 16.1 48 7.4 ESE 28 44 15 24 1015.1 1015.1 0.0
09/10:30am 28.1 25.3 15.3 45 7.8 SE 24 39 13 21 1015.3 1015.3 0.0
09/10:00am 27.8 24.7 15.7 47 7.4 SE 26 41 14 22 1015.5 1015.5 0.0
09/09:30am 26.9 24.8 15.2 48 7.1 SE 20 33 11 18 1015.7 1015.7 0.0
09/09:00am 25.4 24.8 16.6 58 5.4 SE 15 30 8 16 1015.8 1015.8 0.0
09/08:30am 25.5 24.4 16.4 57 5.6 SSE 17 28 9 15 1015.6 1015.6 0.0
09/08:00am 25.9 25.1 17.2 58 5.4 SSE 17 28 9 15 1015.6 1015.6 0.0
09/07:30am 25.0 24.6 17.1 61 4.9 S 15 24 8 13 1015.4 1015.4 0.0
09/07:00am 23.8 22.8 16.6 64 4.4 S 17 26 9 14 1015.3 1015.3 0.0
09/06:30am 22.2 21.9 16.4 69 3.5 SSW 13 17 7 9 1015.0 1015.0 0.0
09/06:00am 21.6 21.5 15.9 70 3.4 SSW 11 15 6 8 1014.7 1014.7 0.0
09/05:30am 18.9 18.5 16.2 84 1.6 SSW 13 17 7 9 1014.3 1014.3 0.0
09/05:00am 19.2 18.9 16.4 84 1.7 SSW 13 15 7 8 1014.0 1014.0 0.0
09/04:30am 20.4 20.1 16.4 78 2.4 SSW 13 15 7 8 1013.6 1013.6 0.0
09/04:00am 20.2 19.6 16.7 80 2.1 SSW 15 17 8 9 1013.4 1013.4 0.0
09/03:30am 21.5 21.6 16.4 72 3.1 SSW 11 15 6 8 1013.4 1013.4 0.0
09/03:00am 21.5 21.5 16.2 72 3.2 S 11 15 6 8 1013.4 1013.4 0.0
09/02:30am 20.5 20.9 16.3 77 2.5 SSW 9 13 5 7 1013.5 1013.5 0.0
09/02:00am 21.6 21.6 16.3 72 3.2 SSW 11 15 6 8 1013.6 1013.6 0.0
09/01:30am 21.9 22.0 16.5 71 3.3 SSW 11 15 6 8 1013.9 1013.9 0.0
09/01:00am 22.2 22.0 16.6 70 3.4 S 13 19 7 10 1014.2 1014.2 0.0
09/12:30am 22.7 22.5 16.6 68 3.7 S 13 20 7 11 1014.5 1014.5 0.0
09/12:00am 22.6 22.4 16.7 69 3.6 S 13 19 7 10 1014.9 1014.9 0.0
 
Date/Time
EST
Tmp

°C
App
Tmp
°C
Dew
Point
°C
Rel
Hum
%
Delta-T

°C
Wind Press
QNH
hPa
Press
MSL
hPa
Rain
since
9 am
mm
Dir
 
Spd
km/h
Gust
km/h
Spd
kts
Gust
kts
08/11:30pm 22.7 22.5 16.8 69 3.6 S 13 22 7 12 1015.2 1015.2 0.0
08/11:00pm 23.1 23.0 16.9 68 3.8 S 13 19 7 10 1015.4 1015.4 0.0
08/10:30pm 23.6 23.0 16.6 65 4.3 S 15 26 8 14 1015.5 1015.5 0.0
08/10:00pm 23.3 23.1 16.8 67 4.0 S 13 20 7 11 1015.4 1015.4 0.0
08/09:30pm 23.6 23.6 17.3 67 3.9 S 13 22 7 12 1015.4 1015.4 0.0
08/09:00pm 24.2 23.9 17.3 65 4.3 SSE 15 26 8 14 1015.4 1015.4 0.0
08/08:30pm 24.6 23.9 17.4 64 4.5 SE 17 30 9 16 1015.1 1015.1 0.0
08/08:00pm 24.8 23.6 17.4 63 4.6 SE 20 32 11 17 1014.6 1014.6 0.0
08/07:30pm 25.1 24.1 17.9 64 4.5 SE 20 35 11 19 1014.2 1014.2 0.0
08/07:00pm 25.1 24.2 18.3 66 4.3 ESE 20 35 11 19 1014.0 1014.0 0.0
08/06:30pm 25.5 24.5 18.0 63 4.7 ESE 20 32 11 17 1013.6 1013.6 0.0
08/06:00pm 25.9 24.2 18.2 62 4.9 ESE 24 43 13 23 1013.0 1013.0 0.0
08/05:30pm 26.2 25.2 18.9 64 4.7 ESE 22 37 12 20 1012.6 1012.6 0.0
08/05:00pm 26.7 25.0 18.2 59 5.4 ESE 24 41 13 22 1012.5 1012.5 0.0
08/04:30pm 27.0 25.7 19.1 62 5.1 ESE 24 43 13 23 1012.5 1012.5 0.0
08/04:00pm 27.6 25.3 17.6 54 6.3 ESE 26 41 14 22 1012.5 1012.5 0.0
08/03:30pm 27.7 25.7 17.4 53 6.5 ESE 24 41 13 22 1012.6 1012.6 0.0
08/03:00pm 27.9 25.3 16.8 50 6.9 ESE 26 39 14 21 1012.7 1012.7 0.0
08/02:30pm 27.8 25.8 17.3 52 6.6 ESE 24 37 13 20 1013.0 1013.0 0.0
08/02:00pm 26.8 24.0 16.4 53 6.4 ESE 26 39 14 21 1013.3 1013.3 0.0
08/01:30pm 26.9 25.1 17.9 57 5.7 ESE 24 39 13 21 1013.5 1013.5 0.0
08/01:00pm 28.1 26.1 17.5 52 6.7 ESE 24 41 13 22 1013.7 1013.7 0.0
08/12:30pm 27.4 25.1 17.6 55 6.2 ESE 26 43 14 23 1013.9 1013.9 0.0

Latest Capital City Observations: Canberra | Sydney | Melbourne | Brisbane | Adelaide | Perth | Hobart | Darwin

Other Formats:

Comma delimited format used in spreadsheet applications
http://www.bom.gov.au/fwo/IDQ60901/IDQ60901.94578.axf

JavaScript Object Notation format (JSON) in row-major order
http://www.bom.gov.au/fwo/IDQ60901/IDQ60901.94578.json